Time;durP1;ratioP1;P1;durP2;ratioP2;P2;SDS_P1;SDS_P2;PMS_P1;PMS_P2;Temp;Humidity;BMP_temperature;BMP_pressure;BME280_temperature;BME280_humidity;BME280_pressure;Samples;Min_cycle;Max_cycle;Signal;HPM_P1;HPM_P2
2022/01/08 10:06:24;;;;;;;;;17.00;10.25;;;;;6.15;84.50;100919.34;5067083;28;45369;-66
2022/01/08 10:08:50;;;;;;;;;13.50;12.00;;;;;6.33;84.48;100904.13;5050655;28;45404;-66
2022/01/08 10:11:16;;;;;;;;;14.00;12.00;;;;;6.63;83.55;100894.34;5050112;28;45512;-67
2022/01/08 10:13:42;;;;;;;;;12.75;10.75;;;;;6.72;82.45;100882.41;5050791;28;45853;-66
2022/01/08 10:19:02;;;;;;;;;15.50;12.75;;;;;7.08;81.47;100862.25;5050404;28;45515;-66
2022/01/08 10:21:34;;;;;;;;;15.50;13.25;;;;;7.18;80.61;100864.16;5050915;28;45414;-67
2022/01/08 10:24:08;;;;;;;;;18.25;12.50;;;;;7.34;80.50;100875.72;5053658;28;46166;-66
2022/01/08 10:26:36;;;;;;;;;11.75;10.25;;;;;7.39;80.11;100868.88;5050715;28;45970;-65
2022/01/08 10:29:05;;;;;;;;;9.75;8.00;;;;;7.62;80.43;100875.34;5048756;28;45471;-65
2022/01/08 10:31:33;;;;;;;;;17.50;12.25;;;;;7.64;80.09;100876.25;5050151;28;45400;-66
2022/01/08 10:34:08;;;;;;;;;12.75;10.50;;;;;7.72;79.75;100859.84;5050753;28;45485;-65
2022/01/08 10:36:40;;;;;;;;;11.75;10.25;;;;;7.78;79.72;100857.31;5049471;28;45437;-66
2022/01/08 10:39:11;;;;;;;;;12.25;8.25;;;;;7.81;79.90;100846.97;5049813;28;45357;-66
2022/01/08 10:41:43;;;;;;;;;10.00;5.75;;;;;7.84;79.62;100842.66;5049759;28;45388;-67
2022/01/08 10:44:16;;;;;;;;;8.75;7.00;;;;;7.94;79.49;100843.66;5050082;28;45515;-66
2022/01/08 10:46:57;;;;;;;;;9.50;7.50;;;;;8.00;79.98;100851.59;5049384;28;46148;-66
2022/01/08 10:49:35;;;;;;;;;12.25;6.75;;;;;8.11;79.50;100837.81;5052646;28;45374;-65
2022/01/08 10:52:04;;;;;;;;;12.25;7.75;;;;;8.13;79.46;100823.91;5050196;28;45320;-65
2022/01/08 10:54:34;;;;;;;;;6.75;6.00;;;;;8.10;79.06;100805.63;5050482;28;45229;-65
2022/01/08 10:57:02;;;;;;;;;9.00;7.25;;;;;8.16;79.23;100813.56;5050112;28;46241;-66
2022/01/08 10:59:29;;;;;;;;;9.75;6.75;;;;;7.90;79.31;100758.44;5050099;28;45429;-67
2022/01/08 11:02:09;;;;;;;;;11.25;8.25;;;;;8.19;79.22;100797.06;5048317;28;45456;-66
2022/01/08 11:04:51;;;;;;;;;12.50;8.00;;;;;8.20;78.79;100785.75;5054997;28;45468;-65
2022/01/08 11:07:25;;;;;;;;;11.75;7.25;;;;;8.29;79.15;100788.47;5071516;27;46668;-66
2022/01/08 11:10:18;;;;;;;;;15.75;6.50;;;;;8.37;78.78;100772.91;5073558;28;45580;-66
2022/01/08 11:12:46;;;;;;;;;8.50;6.50;;;;;8.27;78.68;100743.22;5067232;28;45565;-65
2022/01/08 11:17:46;;;;;;;;;10.00;6.00;;;;;8.46;78.64;100754.78;5059825;28;45220;-65
2022/01/08 11:20:17;;;;;;;;;12.75;8.25;;;;;8.42;78.70;100729.50;5041945;28;45473;-66
2022/01/08 11:22:48;;;;;;;;;8.75;6.00;;;;;8.59;79.15;100741.00;5060616;28;45422;-66
2022/01/08 11:25:19;;;;;;;;;9.75;7.00;;;;;8.73;77.90;100742.84;5059988;28;45387;-66
2022/01/08 11:27:44;;;;;;;;;8.25;7.00;;;;;8.77;78.14;100736.81;5047149;28;45437;-67
2022/01/08 11:30:19;;;;;;;;;7.00;7.00;;;;;8.86;77.87;100724.72;5055069;28;45300;-67
2022/01/08 11:32:45;;;;;;;;;7.25;6.00;;;;;8.83;77.40;100705.53;5055362;28;45459;-67
2022/01/08 11:35:12;;;;;;;;;11.25;7.75;;;;;8.83;76.86;100715.97;5055103;28;45421;-66
2022/01/08 11:37:38;;;;;;;;;14.00;8.00;;;;;8.82;77.18;100707.25;5056198;28;46687;-67
2022/01/08 11:40:10;;;;;;;;;9.25;6.00;;;;;8.78;77.39;100695.06;5058721;28;45596;-68
2022/01/08 11:42:39;;;;;;;;;10.00;7.25;;;;;8.94;76.99;100689.94;5054690;28;45544;-67
2022/01/08 11:45:08;;;;;;;;;9.75;8.00;;;;;8.92;76.50;100682.06;5055938;28;45456;-68
2022/01/08 11:47:33;;;;;;;;;8.00;5.75;;;;;8.87;76.91;100666.41;5056007;28;46278;-68
2022/01/08 11:50:05;;;;;;;;;10.50;6.25;;;;;8.71;76.85;100630.56;5055795;28;45343;-68
2022/01/08 11:52:31;;;;;;;;;7.00;7.00;;;;;8.77;77.37;100640.19;5056659;28;45454;-67
2022/01/08 11:54:56;;;;;;;;;7.50;7.50;;;;;8.60;76.99;100604.38;5056460;28;45295;-68
2022/01/08 11:57:27;;;;;;;;;10.50;6.75;;;;;8.81;77.01;100626.28;5055833;28;45356;-67
2022/01/08 11:59:57;;;;;;;;;8.50;6.50;;;;;8.81;76.90;100621.06;5056946;28;45522;-68
2022/01/08 12:02:42;;;;;;;;;7.25;6.50;;;;;8.57;77.05;100570.41;5056557;28;45633;-66
2022/01/08 12:05:13;;;;;;;;;7.00;6.00;;;;;8.74;76.89;100594.03;5055759;28;45350;-67
2022/01/08 12:07:44;;;;;;;;;11.25;6.50;;;;;8.75;77.26;100574.88;5036746;28;45410;-68
2022/01/08 12:10:21;;;;;;;;;10.50;8.50;;;;;8.82;77.07;100560.13;5055285;28;45356;-68
2022/01/08 12:13:13;;;;;;;;;11.25;8.75;;;;;8.85;77.02;100566.25;5055478;28;45596;-67
2022/01/08 12:15:42;;;;;;;;;11.75;8.75;;;;;8.83;77.25;100557.53;5051384;28;45337;-68
2022/01/08 12:18:10;;;;;;;;;11.75;7.25;;;;;8.73;77.13;100541.78;5055070;28;46588;-68
2022/01/08 12:20:52;;;;;;;;;9.25;4.25;;;;;8.79;76.80;100524.44;5055471;28;45444;-69
2022/01/08 12:23:32;;;;;;;;;8.50;4.50;;;;;8.77;76.83;100523.53;5055483;28;45690;-68
2022/01/08 12:26:00;;;;;;;;;6.50;5.00;;;;;8.70;77.12;100513.91;5055068;28;45879;-67
2022/01/08 12:28:53;;;;;;;;;9.00;7.50;;;;;8.79;77.36;100497.44;5053312;28;46216;-68
2022/01/08 12:31:22;;;;;;;;;14.75;5.75;;;;;8.86;76.99;100484.41;5054506;28;45383;-69
2022/01/08 12:34:07;;;;;;;;;11.25;5.00;;;;;8.79;76.83;100471.34;5055692;28;45501;-69
2022/01/08 12:36:34;;;;;;;;;12.50;7.75;;;;;8.79;77.40;100461.75;5055456;28;45846;-66
2022/01/08 12:39:04;;;;;;;;;7.00;5.00;;;;;8.73;76.81;100443.44;5054232;28;48311;-69
2022/01/08 12:41:29;;;;;;;;;8.00;5.00;;;;;8.81;76.90;100439.13;5055346;28;45719;-69
2022/01/08 12:43:55;;;;;;;;;8.75;6.50;;;;;8.83;77.06;100420.88;5054861;28;45717;-69
2022/01/08 12:46:24;;;;;;;;;7.75;5.50;;;;;8.97;76.44;100426.13;5055102;28;45647;-69
2022/01/08 12:49:12;;;;;;;;;19.25;11.50;;;;;8.83;76.97;100415.66;5054672;28;45768;-67
2022/01/08 12:51:50;;;;;;;;;8.00;4.00;;;;;8.96;77.11;100403.50;5054905;28;45695;-69
2022/01/08 12:54:21;;;;;;;;;9.25;8.75;;;;;8.94;77.11;100389.56;5036798;28;45354;-68
2022/01/08 12:56:51;;;;;;;;;9.75;6.50;;;;;8.96;76.77;100388.69;5037280;28;45327;-68
2022/01/08 12:59:18;;;;;;;;;9.25;6.00;;;;;8.94;76.93;100387.81;5054781;28;45394;-68
2022/01/08 13:01:49;;;;;;;;;9.75;5.75;;;;;8.89;77.06;100379.94;5054568;28;45515;-69
2022/01/08 13:04:18;;;;;;;;;11.75;8.00;;;;;8.92;77.19;100368.63;5036598;28;46349;-68
2022/01/08 13:06:44;;;;;;;;;14.00;9.75;;;;;8.96;77.01;100365.19;5057659;28;45754;-69
2022/01/08 13:09:14;;;;;;;;;9.50;7.75;;;;;8.82;76.88;100314.66;5055149;28;46660;-66
2022/01/08 13:11:42;;;;;;;;;13.00;9.75;;;;;8.97;76.75;100345.16;5037001;28;45761;-67
2022/01/08 13:14:16;;;;;;;;;11.50;7.50;;;;;8.96;76.94;100344.28;5059027;28;45304;-67
2022/01/08 13:16:45;;;;;;;;;11.00;6.75;;;;;8.95;76.90;100342.56;5056961;28;45484;-66
2022/01/08 13:19:19;;;;;;;;;9.00;9.00;;;;;8.95;77.06;100320.78;5053804;28;45827;-66
2022/01/08 13:21:56;;;;;;;;;9.00;7.50;;;;;8.88;77.12;100310.31;5054180;28;45437;-68
2022/01/08 13:24:50;;;;;;;;;8.75;6.75;;;;;8.89;77.23;100301.59;5055152;28;45419;-66
2022/01/08 13:27:22;;;;;;;;;12.00;5.00;;;;;8.95;77.04;100286.84;5055248;28;45391;-66
2022/01/08 13:29:49;;;;;;;;;8.25;6.00;;;;;8.90;77.22;100282.47;5054413;28;45613;-68
2022/01/08 13:32:17;;;;;;;;;13.00;7.00;;;;;8.89;77.55;100262.44;5053757;28;45498;-66
2022/01/08 13:34:47;;;;;;;;;12.50;8.00;;;;;8.85;77.50;100252.88;5054325;28;45652;-72
2022/01/08 13:37:20;;;;;;;;;9.00;5.25;;;;;8.80;77.75;100249.34;5056137;28;45391;-72
2022/01/08 13:39:58;;;;;;;;;8.25;4.00;;;;;8.81;77.89;100245.88;5056904;28;47147;-71
2022/01/08 13:42:35;;;;;;;;;7.25;5.75;;;;;8.91;77.47;100231.97;5054967;28;45410;-69
2022/01/08 13:45:11;;;;;;;;;9.75;5.25;;;;;8.89;77.55;100233.69;5036239;28;45321;-66
2022/01/08 13:47:43;;;;;;;;;7.50;5.00;;;;;8.95;77.52;100225.00;5054010;28;45391;-68
2022/01/08 13:50:21;;;;;;;;;7.75;5.25;;;;;8.94;77.54;100214.56;5053633;28;46225;-67
2022/01/08 13:52:56;;;;;;;;;11.75;7.00;;;;;8.82;77.97;100202.34;5057317;28;45460;-67
2022/01/08 13:55:35;;;;;;;;;10.00;5.00;;;;;8.92;77.64;100198.88;5040503;28;45221;-67
2022/01/08 13:58:07;;;;;;;;;11.50;6.75;;;;;8.97;77.81;100178.88;5058316;28;45530;-67
2022/01/08 14:00:36;;;;;;;;;6.25;5.25;;;;;9.00;77.84;100176.25;5057912;28;46147;-67
2022/01/08 14:03:03;;;;;;;;;8.75;6.00;;;;;8.99;77.63;100168.41;5055434;28;45497;-66
2022/01/08 14:05:29;;;;;;;;;10.00;4.00;;;;;9.02;77.50;100161.44;5054324;28;45765;-69
2022/01/08 14:08:06;;;;;;;;;7.75;6.25;;;;;9.01;77.56;100151.00;5054630;28;45556;-66
2022/01/08 14:10:38;;;;;;;;;7.75;5.00;;;;;9.09;77.64;100149.25;5053604;28;45347;-67
2022/01/08 14:13:24;;;;;;;;;8.25;4.00;;;;;8.99;80.62;100148.38;5054012;28;45402;-68
2022/01/08 14:15:58;;;;;;;;;4.00;3.50;;;;;8.99;77.83;100119.63;5054028;28;45673;-68
2022/01/08 14:18:26;;;;;;;;;5.75;5.00;;;;;9.04;77.68;100112.69;5054135;28;45552;-66
2022/01/08 14:20:55;;;;;;;;;7.50;3.00;;;;;8.93;77.88;100101.38;5058816;28;45555;-68
2022/01/08 14:23:28;;;;;;;;;7.00;5.00;;;;;8.86;78.13;100078.75;5033698;28;45398;-67
2022/01/08 14:25:54;;;;;;;;;8.75;4.00;;;;;8.94;78.15;100082.22;5045959;28;45277;-67
2022/01/08 14:28:25;;;;;;;;;8.75;5.75;;;;;8.96;77.90;100075.25;5037652;28;45475;-66
2022/01/08 14:31:16;;;;;;;;;6.75;3.50;;;;;8.96;78.21;100069.16;5039502;28;46047;-67
2022/01/08 14:34:15;;;;;;;;;4.00;4.00;;;;;8.95;78.14;100059.59;5039463;28;45452;-75
2022/01/08 14:36:45;;;;;;;;;8.25;4.25;;;;;8.94;78.17;100045.66;5034335;28;45465;-64
2022/01/08 14:39:13;;;;;;;;;9.00;4.75;;;;;8.94;78.22;100044.78;5033587;28;45525;-64
2022/01/08 14:41:42;;;;;;;;;4.50;4.00;;;;;8.90;78.44;100021.31;5033116;28;45374;-66
2022/01/08 14:44:08;;;;;;;;;7.00;5.00;;;;;8.93;78.51;100016.94;5033930;28;45600;-66
2022/01/08 14:46:34;;;;;;;;;7.50;5.00;;;;;8.91;78.56;100004.75;5033664;28;45572;-65
2022/01/08 14:49:00;;;;;;;;;4.25;2.50;;;;;8.88;78.39;99983.88;5032702;28;45398;-65
2022/01/08 14:51:29;;;;;;;;;4.75;4.75;;;;;8.97;77.97;99966.41;5019499;28;46429;-65
2022/01/08 14:53:57;;;;;;;;;6.25;6.00;;;;;9.00;78.03;99967.28;5035645;28;45473;-65
2022/01/08 14:56:24;;;;;;;;;7.00;5.00;;;;;8.92;77.76;99945.53;5038628;28;45467;-66
2022/01/08 14:58:50;;;;;;;;;6.75;4.75;;;;;9.05;77.78;99942.00;5037446;28;45464;-66
2022/01/08 15:01:16;;;;;;;;;9.50;7.00;;;;;9.02;77.74;99935.94;5036998;28;46041;-67
2022/01/08 15:03:42;;;;;;;;;7.75;6.75;;;;;8.96;77.95;99929.00;5040523;28;45341;-66
2022/01/08 15:06:07;;;;;;;;;7.25;6.25;;;;;8.93;77.87;99902.03;5040873;28;45253;-65
2022/01/08 15:08:33;;;;;;;;;7.25;6.75;;;;;9.03;77.65;99904.56;5040562;28;45429;-66
2022/01/08 15:11:00;;;;;;;;;8.00;6.00;;;;;8.78;77.72;99869.91;5037799;28;46122;-66
2022/01/08 15:13:25;;;;;;;;;7.25;0.00;;;;;8.99;77.78;99881.94;5037271;28;45426;-65
2022/01/08 15:15:51;;;;;;;;;7.75;3.00;;;;;8.93;76.95;99894.19;5037203;28;45313;-64
2022/01/08 15:18:17;;;;;;;;;5.00;3.00;;;;;8.89;77.05;99862.00;5037188;28;45411;-65
2022/01/08 15:20:42;;;;;;;;;5.25;3.75;;;;;8.93;77.51;99861.09;5034970;28;46301;-65
2022/01/08 15:23:08;;;;;;;;;7.00;4.25;;;;;8.92;77.36;99856.75;5036710;28;45454;-65
2022/01/08 15:25:34;;;;;;;;;5.00;4.50;;;;;8.94;76.93;99836.72;5036119;28;45431;-65
2022/01/08 15:28:01;;;;;;;;;3.25;3.25;;;;;8.89;77.06;99820.22;5039351;28;45502;-64
2022/01/08 15:30:26;;;;;;;;;4.75;3.25;;;;;8.86;76.99;99810.66;5037613;28;45597;-66
2022/01/08 15:32:52;;;;;;;;;3.25;3.00;;;;;8.92;76.87;99799.28;5035724;28;45770;-65
2022/01/08 15:35:18;;;;;;;;;5.25;4.00;;;;;9.06;77.02;99807.94;5036271;28;45683;-67
2022/01/08 15:37:44;;;;;;;;;3.00;3.00;;;;;9.06;76.31;99807.03;5036116;28;45410;-66
2022/01/08 15:40:10;;;;;;;;;4.00;4.00;;;;;9.03;76.69;99787.03;5035808;28;46001;-65
2022/01/08 15:42:36;;;;;;;;;5.00;3.00;;;;;8.96;76.92;99768.81;5036077;28;45321;-66
2022/01/08 15:45:03;;;;;;;;;4.50;3.00;;;;;9.03;76.68;99775.72;5036270;28;45715;-65
2022/01/08 15:47:28;;;;;;;;;4.25;3.25;;;;;8.91;76.93;99740.97;5036207;28;45509;-66
2022/01/08 15:49:54;;;;;;;;;4.00;2.00;;;;;9.10;76.82;99740.84;5035306;28;46104;-66
2022/01/08 15:52:20;;;;;;;;;4.75;2.00;;;;;9.10;76.67;99733.88;5017809;28;45550;-66
2022/01/08 15:54:46;;;;;;;;;4.00;3.00;;;;;9.01;76.54;99712.19;5036062;28;45350;-67
2022/01/08 15:57:12;;;;;;;;;3.25;2.50;;;;;9.01;76.70;99694.75;5036311;28;45434;-67
2022/01/08 15:59:38;;;;;;;;;3.00;2.00;;;;;9.07;76.58;99706.91;5036144;28;45510;-66
2022/01/08 16:02:04;;;;;;;;;4.50;3.00;;;;;8.88;77.12;99670.50;5035285;28;45510;-66
2022/01/08 16:04:29;;;;;;;;;5.50;3.25;;;;;8.95;77.48;99676.53;5018311;28;46128;-66
2022/01/08 16:06:55;;;;;;;;;6.00;2.75;;;;;9.01;77.40;99678.22;5036838;28;45761;-67
2022/01/08 16:09:20;;;;;;;;;3.00;3.00;;;;;9.00;77.82;99673.91;5035910;28;46145;-67
2022/01/08 16:11:46;;;;;;;;;8.00;5.00;;;;;8.98;77.62;99655.63;5036221;28;45463;-66
2022/01/08 16:14:12;;;;;;;;;2.25;2.25;;;;;9.08;78.09;99646.81;5038524;28;45300;-68
2022/01/08 16:16:38;;;;;;;;;3.50;2.00;;;;;9.02;77.62;99638.19;5036182;28;45261;-66
2022/01/08 16:19:04;;;;;;;;;3.00;2.50;;;;;9.07;78.05;99641.63;5033569;28;47704;-66
2022/01/08 16:21:30;;;;;;;;;5.00;3.00;;;;;9.05;77.90;99636.41;5036338;28;45335;-66
2022/01/08 16:23:56;;;;;;;;;4.50;2.75;;;;;9.03;78.24;99632.06;5037451;28;45798;-67
2022/01/08 16:26:21;;;;;;;;;0.25;0.25;;;;;8.97;78.28;99608.63;5035356;28;45542;-66
2022/01/08 16:28:47;;;;;;;;;5.75;3.50;;;;;8.91;79.04;99599.97;5035883;28;45696;-66
2022/01/08 16:31:13;;;;;;;;;4.00;2.50;;;;;8.89;78.99;99598.25;5034991;28;45352;-66
2022/01/08 16:33:38;;;;;;;;;3.50;2.25;;;;;8.90;79.19;99582.56;5035220;28;45361;-67
2022/01/08 16:36:04;;;;;;;;;6.25;3.50;;;;;9.01;78.99;99577.22;5035355;28;45659;-66
2022/01/08 16:38:30;;;;;;;;;2.00;2.00;;;;;8.93;79.17;99576.47;5035021;28;46250;-65
2022/01/08 16:40:55;;;;;;;;;5.00;3.50;;;;;8.86;79.80;99561.72;5034956;28;45423;-66
2022/01/08 16:43:23;;;;;;;;;2.50;2.00;;;;;8.91;79.03;99579.06;5035067;28;45662;-67
2022/01/08 16:45:49;;;;;;;;;2.50;2.50;;;;;8.94;79.46;99559.91;5034784;28;45678;-67
2022/01/08 16:48:15;;;;;;;;;4.25;2.25;;;;;8.88;79.66;99526.88;5035233;28;45363;-67
2022/01/08 16:50:43;;;;;;;;;2.00;2.00;;;;;8.85;80.12;99534.75;5038792;28;45441;-66
2022/01/08 16:53:12;;;;;;;;;3.00;1.75;;;;;8.87;80.07;99525.16;5039758;28;45556;-66
2022/01/08 16:55:39;;;;;;;;;2.50;2.00;;;;;8.87;80.02;99525.16;5036602;28;45274;-65
2022/01/08 16:58:04;;;;;;;;;3.00;2.00;;;;;9.02;79.17;99510.22;5034650;28;45364;-67
2022/01/08 17:00:30;;;;;;;;;5.25;2.00;;;;;8.85;79.62;99481.66;5033526;28;45527;-67
2022/01/08 17:02:55;;;;;;;;;3.50;2.00;;;;;9.01;79.43;99488.44;5034595;28;45796;-66
2022/01/08 17:05:21;;;;;;;;;4.50;2.00;;;;;9.09;79.26;99478.78;5035112;28;45451;-67
2022/01/08 17:07:47;;;;;;;;;4.00;1.00;;;;;9.08;79.07;99477.03;5036095;28;46132;-66
2022/01/08 17:10:14;;;;;;;;;2.00;1.00;;;;;9.13;79.42;99469.13;5034554;28;45398;-66
2022/01/08 17:12:39;;;;;;;;;1.50;1.50;;;;;9.10;79.16;99456.13;5034763;28;45531;-66
2022/01/08 17:15:07;;;;;;;;;4.00;1.00;;;;;9.11;79.67;99463.94;5034181;28;45399;-65
2022/01/08 17:17:33;;;;;;;;;1.50;1.00;;;;;9.12;79.76;99451.75;5033174;28;45644;-65
2022/01/08 17:19:59;;;;;;;;;1.50;1.50;;;;;9.08;79.76;99437.00;5016473;28;45292;-67
2022/01/08 17:22:24;;;;;;;;;4.00;1.25;;;;;9.04;80.24;99430.97;5034283;28;45473;-65
2022/01/08 17:24:50;;;;;;;;;1.00;1.00;;;;;9.01;80.06;99399.63;5035758;28;45489;-66
2022/01/08 17:27:16;;;;;;;;;1.75;1.75;;;;;9.06;79.91;99390.03;5035007;28;45467;-67
2022/01/08 17:29:43;;;;;;;;;0.00;0.00;;;;;9.09;80.21;99389.97;5034048;28;45521;-67
2022/01/08 17:32:09;;;;;;;;;2.00;2.00;;;;;9.08;79.81;99380.38;5034132;28;45435;-66
2022/01/08 17:34:35;;;;;;;;;2.75;2.75;;;;;9.07;80.07;99381.28;5034194;28;46087;-65
2022/01/08 17:37:00;;;;;;;;;2.00;2.00;;;;;9.08;79.80;99369.94;5034562;28;45502;-66
2022/01/08 17:39:26;;;;;;;;;4.50;1.25;;;;;9.02;80.92;99348.28;5034199;28;45798;-67
2022/01/08 17:41:51;;;;;;;;;3.25;2.00;;;;;8.99;80.29;99348.31;5034206;28;45513;-65
2022/01/08 17:44:17;;;;;;;;;2.00;2.00;;;;;9.05;80.62;99340.41;5033966;28;45697;-65
2022/01/08 17:46:43;;;;;;;;;3.25;2.00;;;;;9.10;80.51;99335.97;5015918;28;45556;-67
2022/01/08 17:49:08;;;;;;;;;3.00;2.00;;;;;9.13;80.36;99334.19;5033868;28;45974;-65
2022/01/08 17:51:38;;;;;;;;;2.00;2.00;;;;;9.03;80.75;99323.88;5033755;28;45244;-66
2022/01/08 17:54:04;;;;;;;;;3.00;3.00;;;;;9.07;80.82;99321.22;5034238;28;45395;-67
2022/01/08 17:56:30;;;;;;;;;5.00;2.00;;;;;9.09;80.82;99318.59;5033882;28;46167;-66
2022/01/08 17:58:56;;;;;;;;;2.00;1.25;;;;;8.99;81.08;99302.16;5034195;28;45369;-66
2022/01/08 18:01:21;;;;;;;;;1.00;1.00;;;;;9.06;80.83;99316.00;5037403;28;45466;-67
2022/01/08 18:03:47;;;;;;;;;2.00;1.00;;;;;9.06;81.06;99300.31;5034003;28;45449;-67
2022/01/08 18:06:13;;;;;;;;;2.00;1.50;;;;;9.14;80.70;99295.88;5033563;28;46214;-65
2022/01/08 18:08:39;;;;;;;;;2.25;2.25;;;;;9.27;80.27;99315.66;5034160;28;45328;-66
2022/01/08 18:11:04;;;;;;;;;2.00;2.00;;;;;9.20;80.03;99313.19;5033972;28;45481;-66
2022/01/08 18:13:30;;;;;;;;;0.50;0.50;;;;;9.23;79.53;99306.19;5034504;28;45431;-67
2022/01/08 18:15:55;;;;;;;;;1.00;1.00;;;;;9.30;79.28;99292.13;5033750;28;45454;-65
2022/01/08 18:18:21;;;;;;;;;1.00;1.00;;;;;9.38;78.67;99284.16;5033770;28;45422;-66
2022/01/08 18:20:47;;;;;;;;;0.00;0.00;;;;;9.40;77.87;99271.94;5034343;28;45459;-67
2022/01/08 18:23:14;;;;;;;;;0.00;0.00;;;;;9.46;77.38;99260.50;5032828;28;45532;-68
2022/01/08 18:25:40;;;;;;;;;0.00;0.00;;;;;9.29;77.40;99235.53;5033715;28;45774;-66
2022/01/08 18:28:05;;;;;;;;;2.00;1.00;;;;;9.45;77.25;99248.34;5036461;28;45716;-69
2022/01/08 18:30:31;;;;;;;;;0.50;0.50;;;;;9.50;77.39;99246.50;5037195;28;45439;-67
2022/01/08 18:32:57;;;;;;;;;1.25;1.25;;;;;9.54;76.94;99246.44;5037365;28;45778;-67
2022/01/08 18:35:25;;;;;;;;;1.00;1.00;;;;;9.45;76.27;99215.22;5039329;28;46154;-66
2022/01/08 18:37:51;;;;;;;;;1.00;1.00;;;;;9.47;75.94;99228.28;5036812;28;45306;-67
2022/01/08 18:40:20;;;;;;;;;0.50;0.50;;;;;9.50;75.24;99228.22;5036810;28;45532;-67
2022/01/08 18:42:47;;;;;;;;;0.25;0.00;;;;;9.55;74.46;99242.91;5037031;28;45312;-67
2022/01/08 18:45:13;;;;;;;;;0.00;0.00;;;;;9.55;74.22;99236.84;5037774;28;45666;-68
2022/01/08 18:47:39;;;;;;;;;1.00;1.00;;;;;9.49;73.75;99216.00;5039029;28;45513;-66
2022/01/08 18:50:06;;;;;;;;;1.25;1.25;;;;;9.41;73.87;99187.41;5036660;28;45494;-66
2022/01/08 18:52:32;;;;;;;;;1.00;1.00;;;;;9.43;72.87;99198.72;5037148;28;45443;-67
2022/01/08 18:54:59;;;;;;;;;2.00;1.00;;;;;9.45;73.17;99178.63;5036277;28;46512;-66
2022/01/08 18:57:25;;;;;;;;;2.75;1.50;;;;;9.32;71.97;99159.72;5050890;28;45364;-67
2022/01/08 18:59:51;;;;;;;;;0.50;0.50;;;;;9.38;72.29;99158.75;5061161;28;45414;-67
2022/01/08 19:02:17;;;;;;;;;3.00;2.00;;;;;9.41;72.03;99169.13;5059722;28;45465;-66
2022/01/08 19:04:43;;;;;;;;;1.25;1.25;;;;;9.27;72.09;99135.41;5056275;28;46088;-66
2022/01/08 19:07:11;;;;;;;;;1.00;1.00;;;;;9.30;71.68;99144.94;5056593;28;45338;-65
2022/01/08 19:09:37;;;;;;;;;2.00;2.00;;;;;9.40;71.47;99153.50;5060377;28;45555;-66
2022/01/08 19:12:03;;;;;;;;;2.25;2.25;;;;;9.39;72.24;99151.75;5060367;28;45456;-67
2022/01/08 19:14:32;;;;;;;;;2.75;2.75;;;;;9.40;71.44;99169.19;5056388;28;46426;-67
2022/01/08 19:16:59;;;;;;;;;3.75;2.00;;;;;9.37;71.04;99156.13;5056297;28;45494;-67
2022/01/08 19:19:25;;;;;;;;;2.50;2.00;;;;;9.36;71.04;99151.81;5055585;28;45366;-66
2022/01/08 19:21:50;;;;;;;;;5.00;2.75;;;;;9.33;71.23;99147.50;5055898;28;45513;-67
2022/01/08 19:24:16;;;;;;;;;3.00;2.00;;;;;9.36;71.71;99141.38;5055509;28;45385;-66
2022/01/08 19:26:43;;;;;;;;;3.00;2.00;;;;;9.31;70.97;99147.53;5057034;28;45438;-66
2022/01/08 19:29:09;;;;;;;;;4.00;2.25;;;;;9.32;71.00;99143.16;5038045;28;45504;-67
2022/01/08 19:31:37;;;;;;;;;1.50;1.00;;;;;9.30;70.98;99140.59;5055651;28;45454;-66
2022/01/08 19:34:03;;;;;;;;;4.25;2.75;;;;;9.29;70.76;99130.16;5058597;28;46595;-66
2022/01/08 19:36:28;;;;;;;;;12.75;11.50;;;;;9.25;71.30;99126.72;5059302;28;45347;-66
2022/01/08 19:38:54;;;;;;;;;7.25;3.75;;;;;9.20;70.74;99114.66;5059310;28;45424;-67
2022/01/08 19:41:23;;;;;;;;;4.00;4.00;;;;;9.23;70.78;99115.47;5056019;28;45347;-67
2022/01/08 19:43:50;;;;;;;;;5.00;4.75;;;;;9.14;70.58;99099.97;5057613;28;45597;-66
2022/01/08 19:46:15;;;;;;;;;3.00;3.00;;;;;9.21;70.74;99109.41;5059730;28;45367;-67
2022/01/08 19:48:41;;;;;;;;;7.00;4.75;;;;;9.21;70.62;99090.28;5056997;28;45382;-68
2022/01/08 19:51:07;;;;;;;;;5.00;3.75;;;;;9.23;70.57;99109.38;5055452;28;45483;-66
2022/01/08 19:53:33;;;;;;;;;3.00;2.00;;;;;9.22;70.62;99103.28;5055329;28;46290;-67
2022/01/08 19:55:59;;;;;;;;;2.50;2.50;;;;;9.11;70.18;99092.16;5056022;28;45434;-66
2022/01/08 19:58:25;;;;;;;;;7.00;5.25;;;;;9.13;70.54;99088.66;5060164;28;45408;-66
2022/01/08 20:00:51;;;;;;;;;7.75;4.00;;;;;9.10;70.39;99093.06;5059474;28;45558;-66
2022/01/08 20:03:16;;;;;;;;;4.25;3.00;;;;;9.09;70.36;99084.38;5058769;28;46078;-66
2022/01/08 20:05:42;;;;;;;;;5.25;4.00;;;;;9.13;70.11;99091.28;5055359;28;45608;-65
2022/01/08 20:08:08;;;;;;;;;9.75;3.75;;;;;9.06;69.92;99086.16;5055518;28;45541;-66
2022/01/08 20:10:34;;;;;;;;;5.75;4.00;;;;;9.22;69.83;99102.44;5056539;28;45427;-66
2022/01/08 20:13:00;;;;;;;;;3.50;3.00;;;;;9.19;69.38;99100.75;5056068;28;46368;-66
2022/01/08 20:15:27;;;;;;;;;6.50;3.75;;;;;9.21;69.47;99111.16;5046266;28;45454;-66
2022/01/08 20:17:53;;;;;;;;;5.75;3.25;;;;;9.15;69.07;99106.03;5043170;28;45845;-64
2022/01/08 20:20:18;;;;;;;;;5.00;3.00;;;;;9.18;69.03;99106.84;5051529;28;45445;-65
2022/01/08 20:22:44;;;;;;;;;3.50;2.00;;;;;9.21;68.46;99105.94;5053508;28;46191;-66
2022/01/08 20:25:13;;;;;;;;;8.00;4.75;;;;;9.21;68.66;99104.19;5035762;28;45296;-66
2022/01/08 20:27:41;;;;;;;;;2.75;2.75;;;;;9.17;68.83;99092.06;5039347;28;45376;-64
2022/01/08 20:30:09;;;;;;;;;3.00;2.75;;;;;9.21;68.53;99104.19;5054908;28;45510;-64
2022/01/08 20:32:35;;;;;;;;;3.50;3.00;;;;;9.21;68.75;99101.56;5053722;28;46899;-65
2022/01/08 20:35:01;;;;;;;;;4.00;2.25;;;;;9.20;68.84;99107.66;5059324;28;45307;-65
2022/01/08 20:37:26;;;;;;;;;7.00;2.25;;;;;9.01;68.87;99078.41;5059950;28;46106;-65
2022/01/08 20:39:52;;;;;;;;;5.00;2.00;;;;;9.22;69.02;99103.28;5045683;28;45351;-65
2022/01/08 20:42:17;;;;;;;;;3.75;3.00;;;;;9.17;69.23;99110.34;5041918;28;45599;-65
2022/01/08 20:44:43;;;;;;;;;4.50;2.00;;;;;9.22;69.63;99115.50;5054146;28;45500;-65
2022/01/08 20:47:15;;;;;;;;;3.50;2.00;;;;;9.16;69.69;99102.53;5055414;28;45722;-65
2022/01/08 20:49:42;;;;;;;;;3.50;3.00;;;;;9.08;69.68;99102.69;5043949;28;45431;-64
2022/01/08 20:52:08;;;;;;;;;2.00;1.75;;;;;9.12;69.37;99102.59;5042887;28;45525;-66
2022/01/08 20:54:34;;;;;;;;;4.00;2.00;;;;;9.13;69.88;99099.13;5038939;28;45464;-65
2022/01/08 20:57:01;;;;;;;;;4.75;3.00;;;;;9.12;69.82;99104.34;5037042;28;45581;-65
2022/01/08 20:59:26;;;;;;;;;8.25;2.00;;;;;9.15;69.72;99099.06;5035159;28;45466;-65
2022/01/08 21:01:52;;;;;;;;;2.00;2.00;;;;;9.14;69.52;99115.63;5037845;28;46362;-65
2022/01/08 21:04:18;;;;;;;;;4.00;3.00;;;;;9.09;69.77;99122.69;5038640;28;45336;-65
2022/01/08 21:06:45;;;;;;;;;5.25;2.50;;;;;9.07;69.82;99104.44;5036874;28;45280;-64
2022/01/08 21:09:11;;;;;;;;;6.75;4.50;;;;;9.03;69.34;99100.16;5035014;28;45474;-65
2022/01/08 21:11:37;;;;;;;;;13.25;10.00;;;;;9.11;69.98;99129.63;5034367;28;45436;-66
2022/01/08 21:14:03;;;;;;;;;6.75;3.75;;;;;9.05;69.90;99121.03;5035402;28;45848;-65
2022/01/08 21:16:30;;;;;;;;;2.50;2.00;;;;;9.03;69.96;99122.78;5035243;28;45466;-65
2022/01/08 21:18:56;;;;;;;;;2.00;1.00;;;;;9.05;70.52;99118.41;5034882;28;45419;-65
2022/01/08 21:21:23;;;;;;;;;5.25;4.00;;;;;9.00;70.60;99141.13;5038657;28;46397;-65
2022/01/08 21:23:49;;;;;;;;;3.75;2.00;;;;;9.01;70.58;99161.13;5037295;28;45373;-65
2022/01/08 21:26:15;;;;;;;;;2.00;2.00;;;;;8.81;70.47;99138.81;5036790;28;45299;-65
2022/01/08 21:28:42;;;;;;;;;2.00;1.00;;;;;8.98;70.03;99180.31;5042772;28;45561;-65
2022/01/08 21:31:10;;;;;;;;;3.00;1.00;;;;;8.88;69.26;99184.84;5034559;28;45790;-66
2022/01/08 21:33:36;;;;;;;;;0.00;0.00;;;;;8.93;68.80;99208.25;5031176;28;45303;-66
2022/01/08 21:36:05;;;;;;;;;0.00;0.00;;;;;8.87;68.64;99184.84;5035612;28;45618;-66
2022/01/08 21:38:36;;;;;;;;;1.50;1.00;;;;;8.89;68.45;99214.41;5031035;28;45348;-64
2022/01/08 21:41:04;;;;;;;;;2.00;2.00;;;;;8.89;68.01;99220.50;5037508;28;45705;-66
2022/01/08 21:43:30;;;;;;;;;10.50;8.00;;;;;8.86;67.58;99233.59;5040073;28;45443;-64
2022/01/08 21:45:57;;;;;;;;;10.25;9.00;;;;;8.87;67.20;99237.06;5038023;28;45226;-65
2022/01/08 21:48:29;;;;;;;;;12.00;6.25;;;;;8.86;66.77;99251.03;5039553;28;45596;-65
2022/01/08 21:50:55;;;;;;;;;10.00;9.00;;;;;8.79;66.53;99234.56;5041822;28;46478;-64
2022/01/08 21:53:20;;;;;;;;;4.00;4.00;;;;;8.78;66.80;99242.41;5035598;28;45708;-65